Josita B — 9HA3758 — position and weather

sailwx.info

Track history (hours):
 
Tides and Currents Weather Stations Pressure Air Temp Water Temp Dewpoint Dewpoint Depression Visibility Wind Speed Wind Dir Waves Ship Positions

Josita B

Last reported at 2018-Aug-15 02:30 UTC. Time now 2018-Aug-15 03:00 UTC.
Position N 28°08' W 015°07'.

Length 170 m; draft 9.2 m.

Type: Ship (hazmat cat C). MMSI: 229966000.

Date/timePositionNaut miles runAvg speedWind from/ knotsBaromVisibWave heightAir tempDewpointWater temp
2018-Aug-15 02:30N 28°08' W 015°07'0 0.6
2018-Aug-15 02:00N 28°08' W 015°07'0 0.1
2018-Aug-15 01:30N 28°08' W 015°07'0 0.6
2018-Aug-15 01:00N 28°08' W 015°07'1 1.1
2018-Aug-15 00:30N 28°09' W 015°07'0 0.9
2018-Aug-15 00:00N 28°09' W 015°06'4 8.2
2018-Aug-14 23:30N 28°13' W 015°09'612.5
2018-Aug-14 23:00N 28°19' W 015°09'918.3
2018-Aug-14 22:30N 28°25' W 015°02'918.3
2018-Aug-14 22:00N 28°32' W 014°54'918.0
2018-Aug-14 21:30N 28°38' W 014°47'918.1
2018-Aug-14 21:00N 28°45' W 014°40'918.2
2018-Aug-14 20:30N 28°51' W 014°33'918.2
2018-Aug-14 20:00N 28°58' W 014°26'918.2
2018-Aug-14 19:30N 29°04' W 014°18'918.0
2018-Aug-14 19:00N 29°11' W 014°11'917.7
2018-Aug-14 18:30N 29°17' W 014°04'918.0
2018-Aug-14 18:00N 29°23' W 013°57'918.7
2018-Aug-14 17:30N 29°30' W 013°49'918.4
2018-Aug-14 17:00N 29°37' W 013°42'918.1
2018-Aug-14 16:30N 29°43' W 013°34'917.9
2018-Aug-14 15:59N 29°49' W 013°26'917.8
2018-Aug-14 15:30N 29°55' W 013°19'917.8
2018-Aug-14 15:00N 30°01' W 013°12'918.0
2018-Aug-14 14:30N 30°08' W 013°04'917.8
2018-Aug-14 14:00N 30°14' W 012°57'917.6
2018-Aug-14 13:30N 30°20' W 012°50'918.0
2018-Aug-14 13:00N 30°26' W 012°42'917.9
2018-Aug-14 12:30N 30°32' W 012°35'918.0
2018-Aug-14 12:00N 30°39' W 012°27'917.9
2018-Aug-14 11:30N 30°45' W 012°20'918.2
2018-Aug-14 11:00N 30°51' W 012°12'1018.4
2018-Aug-14 10:28N 30°58' W 012°04'918.3
2018-Aug-14 09:59N 31°04' W 011°56'918.2
2018-Aug-14 09:30N 31°10' W 011°49'918.4
2018-Aug-14 08:59N 31°17' W 011°41'918.2
2018-Aug-14 08:30N 31°23' W 011°34'918.6
2018-Aug-14 08:00N 31°29' W 011°26'1018.9
2018-Aug-14 07:30N 31°36' W 011°18'1019.0
2018-Aug-14 07:00N 31°43' W 011°10'919.0
2018-Aug-14 06:30N 31°49' W 011°02'1218.8
2018-Aug-14 05:52N 31°58' W 010°52'718.5
2018-Aug-14 05:30N 32°02' W 010°46'918.3
2018-Aug-14 04:59N 32°09' W 010°38'1618.3
2018-Aug-14 04:06N 32°20' W 010°24'317.9
2018-Aug-14 03:55N 32°22' W 010°21'718.0
2018-Aug-14 03:30N 32°28' W 010°15'1518.0
2018-Aug-14 02:40N 32°38' W 010°03'717.9
2018-Aug-14 02:19N 32°43' W 009°57'517.8
2018-Aug-14 02:00N 32°47' W 009°53'917.7
2018-Aug-14 01:30N 32°53' W 009°45'7718.3
2018-Aug-13 21:18N 33°45' W 008°37'10818.1
2018-Aug-13 15:20N 34°60' W 007°02'4318.2
2018-Aug-13 12:58N 35°31' W 006°26'818.4
2018-Aug-13 12:30N 35°36' W 006°18'918.6
2018-Aug-13 12:00N 35°43' W 006°10'1018.4
2018-Aug-13 11:26N 35°50' W 006°01'2516.9
2018-Aug-13 09:57N 35°59' W 005°32'715.2
2018-Aug-13 09:30N 36°01' W 005°24'815.9
2018-Aug-13 09:00N 36°02' W 005°14'22316.5
2018-Aug-12 19:31N 37°21' W 000°54'118.0
2018-Aug-12 19:27N 37°21' W 000°53'817.9
2018-Aug-12 19:00N 37°27' W 000°46'1117.7
2018-Aug-12 18:22N 37°34' W 000°35'2317.6
2018-Aug-12 17:05N 37°53' W 000°20'317.7
2018-Aug-12 16:56N 37°55' W 000°18'717.6
2018-Aug-12 16:30N 38°01' W 000°12'917.6
2018-Aug-12 15:59N 38°09' W 000°06'917.6
2018-Aug-12 15:30N 38°16' E 000°00'917.7
2018-Aug-12 15:00N 38°23' E 000°06'917.8
2018-Aug-12 14:30N 38°31' E 000°13'917.9
2018-Aug-12 14:00N 38°38' E 000°19'147 4.0
2018-Aug-11 00:47N 40°50' E 001°44'415.3
2018-Aug-11 00:30N 40°54' E 001°47'1215.2
2018-Aug-10 23:44N 41°03' E 001°57'315.0
2018-Aug-10 23:30N 41°06' E 001°59'714.8
2018-Aug-10 23:00N 41°11' E 002°06'713.3
2018-Aug-10 22:30N 41°17' E 002°11'5 9.1
2018-Aug-10 22:00N 41°21' E 002°10'0 0.5
2018-Aug-10 21:29N 41°21' E 002°10'0 0.0
2018-Aug-10 20:59N 41°21' E 002°10'0 0.0
2018-Aug-10 20:29N 41°21' E 002°10'0 0.0
2018-Aug-10 19:59N 41°21' E 002°10'0 0.0
2018-Aug-10 15:44N 41°21' E 002°10'0 0.0
2018-Aug-10 15:11N 41°21' E 002°10'0 0.0
2018-Aug-10 14:20N 41°21' E 002°10'0 0.0
2018-Aug-10 13:59N 41°21' E 002°10'0 0.0
2018-Aug-10 13:29N 41°21' E 002°10'0 0.0
2018-Aug-10 12:59N 41°21' E 002°10'0 0.0
2018-Aug-10 12:29N 41°21' E 002°10'0 0.0
2018-Aug-10 09:44N 41°21' E 002°10'0 0.0
2018-Aug-10 09:29N 41°21' E 002°10'0 0.0
2018-Aug-10 08:38N 41°21' E 002°10'0 0.0
2018-Aug-10 08:26N 41°21' E 002°10'0 0.0
2018-Aug-10 07:56N 41°21' E 002°10'0 0.0
2018-Aug-10 07:29N 41°21' E 002°10'0 0.0
2018-Aug-10 06:56N 41°21' E 002°10'0 0.0
2018-Aug-10 06:26N 41°22' E 002°10'0 0.0
2018-Aug-10 05:44N 41°21' E 002°10'0 0.0
2018-Aug-10 05:05N 41°21' E 002°10'0 0.0
2018-Aug-10 04:23N 41°22' E 002°10'0 0.0
2018-Aug-10 03:59N 41°21' E 002°10'0 0.0
2018-Aug-10 03:29N 41°21' E 002°10'0 0.0
2018-Aug-10 01:56N 41°21' E 002°10'0 0.0
2018-Aug-10 01:26N 41°21' E 002°10'0 0.0
2018-Aug-10 00:59N 41°22' E 002°10'0 0.0
2018-Aug-10 00:23N 41°21' E 002°10'0 0.0
2018-Aug-09 23:53N 41°21' E 002°10'0 0.0
2018-Aug-09 23:29N 41°21' E 002°10'0 0.0
2018-Aug-09 22:59N 41°21' E 002°10'0 0.0
2018-Aug-09 22:29N 41°22' E 002°10'0 0.0
2018-Aug-09 21:59N 41°22' E 002°10'0 0.0
2018-Aug-09 21:29N 41°22' E 002°10'1 2.7
2018-Aug-09 21:01N 41°20' E 002°10'4 8.6
2018-Aug-09 20:30N 41°16' E 002°11'4 8.1
2018-Aug-09 20:00N 41°12' E 002°11'4 7.2
2018-Aug-09 19:30N 41°08' E 002°12'2 3.8
2018-Aug-09 18:57N 41°06' E 002°11'1 2.2
2018-Aug-09 18:30N 41°07' E 002°12'1 2.4
2018-Aug-09 18:00N 41°07' E 002°14'1 1.8
2018-Aug-09 17:30N 41°08' E 002°14'1 1.3
2018-Aug-09 17:00N 41°09' E 002°14'0 0.9
2018-Aug-09 16:30N 41°09' E 002°15'1 1.1
2018-Aug-09 16:00N 41°10' E 002°15'1 1.3
2018-Aug-09 15:30N 41°10' E 002°15'0 0.5
2018-Aug-09 15:00N 41°11' E 002°15'0 0.7
2018-Aug-09 14:30N 41°11' E 002°14'1 1.4
2018-Aug-09 14:00N 41°11' E 002°14'0 0.2
2018-Aug-09 13:30N 41°11' E 002°14'0 0.8
2018-Aug-09 13:00N 41°11' E 002°14'0 0.8
2018-Aug-09 12:30N 41°11' E 002°14'0 0.5
2018-Aug-09 12:00N 41°11' E 002°13'0 0.5
2018-Aug-09 11:30N 41°11' E 002°13'1 1.2
2018-Aug-09 11:00N 41°11' E 002°12'1 1.0
2018-Aug-09 10:30N 41°10' E 002°12'0 1.0
2018-Aug-09 10:00N 41°10' E 002°11'1 1.0
2018-Aug-09 09:30N 41°10' E 002°11'3 5.6
2018-Aug-09 09:00N 41°10' E 002°07'510.0
2018-Aug-09 08:30N 41°07' E 002°02'711.8
2018-Aug-09 07:57N 41°02' E 001°56'511.9
2018-Aug-09 07:30N 40°58' E 001°51'126 7.1
2018-Aug-08 13:40N 39°31' W 000°09'414.7
2018-Aug-08 13:26N 39°29' W 000°12'512.3
2018-Aug-08 13:00N 39°26' W 000°18'1 2.1
2018-Aug-08 12:24N 39°26' W 000°19'0 0.0
2018-Aug-08 11:51N 39°26' W 000°19'0 0.0
2018-Aug-08 11:30N 39°26' W 000°19'0 0.0
2018-Aug-08 09:03N 39°26' W 000°19'0 0.0
2018-Aug-08 08:39N 39°26' W 000°19'0 0.0
2018-Aug-08 08:30N 39°26' W 000°19'0 0.0
2018-Aug-08 07:42N 39°26' W 000°19'0 0.0
2018-Aug-08 05:51N 39°26' W 000°19'0 0.0
2018-Aug-08 05:21N 39°26' W 000°19'0 0.0
2018-Aug-08 04:56N 39°26' W 000°19'0 0.0
2018-Aug-08 04:27N 39°26' W 000°19'0 0.0
2018-Aug-08 03:59N 39°26' W 000°19'0 0.0
2018-Aug-08 03:21N 39°26' W 000°19'0 0.0
2018-Aug-08 02:54N 39°26' W 000°19'0 0.0
2018-Aug-08 01:47N 39°26' W 000°19'0 0.0
2018-Aug-08 01:21N 39°26' W 000°19'0 0.0
2018-Aug-08 00:56N 39°26' W 000°19'0 0.0
2018-Aug-08 00:26N 39°26' W 000°19'0 0.0
2018-Aug-07 23:57N 39°26' W 000°19'0 0.0
2018-Aug-07 23:30N 39°26' W 000°19'0 0.0
2018-Aug-07 22:50N 39°26' W 000°19'0 0.2
2018-Aug-07 22:29N 39°26' W 000°19'2 5.1
2018-Aug-07 22:00N 39°25' W 000°16'5013.7
2018-Aug-07 18:21N 38°47' E 000°25'714.6
2018-Aug-07 17:53N 38°41' E 000°27'615.3
2018-Aug-07 17:29N 38°36' E 000°21'1116.1
2018-Aug-07 16:50N 38°32' E 000°09'515.7
2018-Aug-07 16:30N 38°30' E 000°03'815.3
2018-Aug-07 16:00N 38°26' W 000°06'715.0
2018-Aug-07 15:30N 38°23' W 000°14'715.1
2018-Aug-07 15:00N 38°19' W 000°23'510.0
2018-Aug-07 14:28N 38°20' W 000°30'17 3.0
2018-Aug-07 08:48N 38°03' W 000°24'515.7
2018-Aug-07 08:30N 37°59' W 000°25'815.9
2018-Aug-07 08:00N 37°51' W 000°26'815.6
2018-Aug-07 07:29N 37°43' W 000°27'715.3
2018-Aug-07 07:00N 37°36' W 000°29'814.9
2018-Aug-07 06:27N 37°30' W 000°36'715.2
2018-Aug-07 05:57N 37°24' W 000°42'1015.3
2018-Aug-07 05:17N 37°17' W 000°52'1815.5
2018-Aug-07 04:07N 37°05' W 001°09'315.5
2018-Aug-07 03:56N 37°03' W 001°11'1015.5
2018-Aug-07 03:18N 36°57' W 001°21'2815.3
2018-Aug-07 01:26N 36°37' W 001°47'16815.7
2018-Aug-06 14:41N 36°01' W 005°11'317.3
2018-Aug-06 14:31N 36°01' W 005°14'917.4
2018-Aug-06 14:01N 35°59' W 005°25'917.6
2018-Aug-06 13:30N 35°56' W 005°35'916.4
2018-Aug-06 12:57N 35°55' W 005°46'715.9
2018-Aug-06 12:30N 35°54' W 005°55'9215.8
2018-Aug-06 06:39N 35°01' W 007°27'216.5
2018-Aug-06 06:31N 34°59' W 007°29'816.4
2018-Aug-06 06:00N 34°54' W 007°38'816.4
2018-Aug-06 05:30N 34°49' W 007°46'816.5
2018-Aug-06 05:00N 34°45' W 007°54'816.5
2018-Aug-06 04:31N 34°40' W 008°02'816.5
2018-Aug-06 04:00N 34°35' W 008°10'816.6
2018-Aug-06 03:31N 34°30' W 008°18'1416.6
2018-Aug-06 02:42N 34°22' W 008°31'316.5
2018-Aug-06 02:31N 34°20' W 008°34'916.3
2018-Aug-06 01:59N 34°15' W 008°43'916.3
2018-Aug-06 01:25N 34°10' W 008°52'1716.4
2018-Aug-06 00:21N 33°60' W 009°09'616.5
2018-Aug-06 00:00N 33°56' W 009°15'816.2
2018-Aug-05 23:30N 33°52' W 009°22'816.1
2018-Aug-05 23:01N 33°47' W 009°30'816.2
2018-Aug-05 22:30N 33°42' W 009°38'916.1
2018-Aug-05 21:57N 33°37' W 009°46'716.1
2018-Aug-05 21:30N 33°32' W 009°54'816.0
2018-Aug-05 21:00N 33°28' W 010°01'816.0
2018-Aug-05 20:30N 33°23' W 010°09'1016.2
2018-Aug-05 19:52N 33°17' W 010°19'616.4
2018-Aug-05 19:30N 33°13' W 010°25'816.2
2018-Aug-05 19:00N 33°09' W 010°33'815.9
2018-Aug-05 18:31N 33°04' W 010°40'816.1
2018-Aug-05 18:00N 32°60' W 010°48'816.1
2018-Aug-05 17:30N 32°55' W 010°56'816.1
2018-Aug-05 17:00N 32°50' W 011°04'816.3
2018-Aug-05 16:31N 32°45' W 011°12'816.2
2018-Aug-05 16:01N 32°40' W 011°19'816.1
2018-Aug-05 15:30N 32°36' W 011°27'816.4
2018-Aug-05 15:01N 32°31' W 011°35'1716.6
2018-Aug-05 14:01N 32°21' W 011°51'816.6
2018-Aug-05 13:30N 32°16' W 011°59'916.3
2018-Aug-05 12:58N 32°11' W 012°07'816.3
2018-Aug-05 12:29N 32°06' W 012°15'816.4
2018-Aug-05 12:00N 32°02' W 012°22'916.4
2018-Aug-05 11:28N 31°57' W 012°31'816.5
2018-Aug-05 11:00N 31°52' W 012°38'816.4
2018-Aug-05 10:30N 31°47' W 012°46'816.6
2018-Aug-05 10:00N 31°43' W 012°54'816.6
2018-Aug-05 09:30N 31°38' W 013°02'816.4
2018-Aug-05 09:00N 31°33' W 013°09'816.6
2018-Aug-05 08:30N 31°28' W 013°17'816.6
2018-Aug-05 08:00N 31°23' W 013°25'816.7
2018-Aug-05 07:30N 31°18' W 013°33'816.7
2018-Aug-05 07:00N 31°13' W 013°41'816.8
2018-Aug-05 06:30N 31°08' W 013°49'816.5
2018-Aug-05 06:00N 31°03' W 013°57'816.7
2018-Aug-05 05:30N 30°59' W 014°05'816.7
2018-Aug-05 05:01N 30°54' W 014°12'1016.6
2018-Aug-05 04:26N 30°48' W 014°22'1016.6
2018-Aug-05 03:48N 30°42' W 014°31'516.3
2018-Aug-05 03:30N 30°39' W 014°36'816.1
2018-Aug-05 03:00N 30°35' W 014°44'  
Track history (hours):
 
Tides and Currents Weather Stations Pressure Air Temp Water Temp Dewpoint Dewpoint Depression Visibility Wind Speed Wind Dir Waves Ship Positions

Josita B

Last reported at 2018-Aug-15 02:30 UTC. Time now 2018-Aug-15 03:00 UTC.
Position N 28°08' W 015°07'.

Length 170 m; draft 9.2 m.

Type: Ship (hazmat cat C). MMSI: 229966000.

Date/timePositionNaut miles runAvg speedWind from/ knotsBaromVisibWave heightAir tempDewpointWater temp
2018-Aug-15 02:30N 28°08' W 015°07'0 0.6
2018-Aug-15 02:00N 28°08' W 015°07'0 0.1
2018-Aug-15 01:30N 28°08' W 015°07'0 0.6
2018-Aug-15 01:00N 28°08' W 015°07'1 1.1
2018-Aug-15 00:30N 28°09' W 015°07'0 0.9
2018-Aug-15 00:00N 28°09' W 015°06'4 8.2
2018-Aug-14 23:30N 28°13' W 015°09'612.5
2018-Aug-14 23:00N 28°19' W 015°09'918.3
2018-Aug-14 22:30N 28°25' W 015°02'918.3
2018-Aug-14 22:00N 28°32' W 014°54'918.0
2018-Aug-14 21:30N 28°38' W 014°47'918.1
2018-Aug-14 21:00N 28°45' W 014°40'918.2
2018-Aug-14 20:30N 28°51' W 014°33'918.2
2018-Aug-14 20:00N 28°58' W 014°26'918.2
2018-Aug-14 19:30N 29°04' W 014°18'918.0
2018-Aug-14 19:00N 29°11' W 014°11'917.7
2018-Aug-14 18:30N 29°17' W 014°04'918.0
2018-Aug-14 18:00N 29°23' W 013°57'918.7
2018-Aug-14 17:30N 29°30' W 013°49'918.4
2018-Aug-14 17:00N 29°37' W 013°42'918.1
2018-Aug-14 16:30N 29°43' W 013°34'917.9
2018-Aug-14 15:59N 29°49' W 013°26'917.8
2018-Aug-14 15:30N 29°55' W 013°19'917.8
2018-Aug-14 15:00N 30°01' W 013°12'918.0
2018-Aug-14 14:30N 30°08' W 013°04'917.8
2018-Aug-14 14:00N 30°14' W 012°57'917.6
2018-Aug-14 13:30N 30°20' W 012°50'918.0
2018-Aug-14 13:00N 30°26' W 012°42'917.9
2018-Aug-14 12:30N 30°32' W 012°35'918.0
2018-Aug-14 12:00N 30°39' W 012°27'917.9
2018-Aug-14 11:30N 30°45' W 012°20'918.2
2018-Aug-14 11:00N 30°51' W 012°12'1018.4
2018-Aug-14 10:28N 30°58' W 012°04'918.3
2018-Aug-14 09:59N 31°04' W 011°56'918.2
2018-Aug-14 09:30N 31°10' W 011°49'918.4
2018-Aug-14 08:59N 31°17' W 011°41'918.2
2018-Aug-14 08:30N 31°23' W 011°34'918.6
2018-Aug-14 08:00N 31°29' W 011°26'1018.9
2018-Aug-14 07:30N 31°36' W 011°18'1019.0
2018-Aug-14 07:00N 31°43' W 011°10'919.0
2018-Aug-14 06:30N 31°49' W 011°02'1218.8
2018-Aug-14 05:52N 31°58' W 010°52'718.5
2018-Aug-14 05:30N 32°02' W 010°46'918.3
2018-Aug-14 04:59N 32°09' W 010°38'1618.3
2018-Aug-14 04:06N 32°20' W 010°24'317.9
2018-Aug-14 03:55N 32°22' W 010°21'718.0
2018-Aug-14 03:30N 32°28' W 010°15'1518.0
2018-Aug-14 02:40N 32°38' W 010°03'717.9
2018-Aug-14 02:19N 32°43' W 009°57'517.8
2018-Aug-14 02:00N 32°47' W 009°53'917.7
2018-Aug-14 01:30N 32°53' W 009°45'7718.3
2018-Aug-13 21:18N 33°45' W 008°37'10818.1
2018-Aug-13 15:20N 34°60' W 007°02'4318.2
2018-Aug-13 12:58N 35°31' W 006°26'818.4
2018-Aug-13 12:30N 35°36' W 006°18'918.6
2018-Aug-13 12:00N 35°43' W 006°10'1018.4
2018-Aug-13 11:26N 35°50' W 006°01'2516.9
2018-Aug-13 09:57N 35°59' W 005°32'715.2
2018-Aug-13 09:30N 36°01' W 005°24'815.9
2018-Aug-13 09:00N 36°02' W 005°14'22316.5
2018-Aug-12 19:31N 37°21' W 000°54'118.0
2018-Aug-12 19:27N 37°21' W 000°53'817.9
2018-Aug-12 19:00N 37°27' W 000°46'1117.7
2018-Aug-12 18:22N 37°34' W 000°35'2317.6
2018-Aug-12 17:05N 37°53' W 000°20'317.7
2018-Aug-12 16:56N 37°55' W 000°18'717.6
2018-Aug-12 16:30N 38°01' W 000°12'917.6
2018-Aug-12 15:59N 38°09' W 000°06'917.6
2018-Aug-12 15:30N 38°16' E 000°00'917.7
2018-Aug-12 15:00N 38°23' E 000°06'917.8
2018-Aug-12 14:30N 38°31' E 000°13'917.9
2018-Aug-12 14:00N 38°38' E 000°19'147 4.0
2018-Aug-11 00:47N 40°50' E 001°44'415.3
2018-Aug-11 00:30N 40°54' E 001°47'1215.2
2018-Aug-10 23:44N 41°03' E 001°57'315.0
2018-Aug-10 23:30N 41°06' E 001°59'714.8
2018-Aug-10 23:00N 41°11' E 002°06'713.3
2018-Aug-10 22:30N 41°17' E 002°11'5 9.1
2018-Aug-10 22:00N 41°21' E 002°10'0 0.5
2018-Aug-10 21:29N 41°21' E 002°10'0 0.0
2018-Aug-10 20:59N 41°21' E 002°10'0 0.0
2018-Aug-10 20:29N 41°21' E 002°10'0 0.0
2018-Aug-10 19:59N 41°21' E 002°10'0 0.0
2018-Aug-10 15:44N 41°21' E 002°10'0 0.0
2018-Aug-10 15:11N 41°21' E 002°10'0 0.0
2018-Aug-10 14:20N 41°21' E 002°10'0 0.0
2018-Aug-10 13:59N 41°21' E 002°10'0 0.0
2018-Aug-10 13:29N 41°21' E 002°10'0 0.0
2018-Aug-10 12:59N 41°21' E 002°10'0 0.0
2018-Aug-10 12:29N 41°21' E 002°10'0 0.0
2018-Aug-10 09:44N 41°21' E 002°10'0 0.0
2018-Aug-10 09:29N 41°21' E 002°10'0 0.0
2018-Aug-10 08:38N 41°21' E 002°10'0 0.0
2018-Aug-10 08:26N 41°21' E 002°10'0 0.0
2018-Aug-10 07:56N 41°21' E 002°10'0 0.0
2018-Aug-10 07:29N 41°21' E 002°10'0 0.0
2018-Aug-10 06:56N 41°21' E 002°10'0 0.0
2018-Aug-10 06:26N 41°22' E 002°10'0 0.0
2018-Aug-10 05:44N 41°21' E 002°10'0 0.0
2018-Aug-10 05:05N 41°21' E 002°10'0 0.0
2018-Aug-10 04:23N 41°22' E 002°10'0 0.0
2018-Aug-10 03:59N 41°21' E 002°10'0 0.0
2018-Aug-10 03:29N 41°21' E 002°10'0 0.0
2018-Aug-10 01:56N 41°21' E 002°10'0 0.0
2018-Aug-10 01:26N 41°21' E 002°10'0 0.0
2018-Aug-10 00:59N 41°22' E 002°10'0 0.0
2018-Aug-10 00:23N 41°21' E 002°10'0 0.0
2018-Aug-09 23:53N 41°21' E 002°10'0 0.0
2018-Aug-09 23:29N 41°21' E 002°10'0 0.0
2018-Aug-09 22:59N 41°21' E 002°10'0 0.0
2018-Aug-09 22:29N 41°22' E 002°10'0 0.0
2018-Aug-09 21:59N 41°22' E 002°10'0 0.0
2018-Aug-09 21:29N 41°22' E 002°10'1 2.7
2018-Aug-09 21:01N 41°20' E 002°10'4 8.6
2018-Aug-09 20:30N 41°16' E 002°11'4 8.1
2018-Aug-09 20:00N 41°12' E 002°11'4 7.2
2018-Aug-09 19:30N 41°08' E 002°12'2 3.8
2018-Aug-09 18:57N 41°06' E 002°11'1 2.2
2018-Aug-09 18:30N 41°07' E 002°12'1 2.4
2018-Aug-09 18:00N 41°07' E 002°14'1 1.8
2018-Aug-09 17:30N 41°08' E 002°14'1 1.3
2018-Aug-09 17:00N 41°09' E 002°14'0 0.9
2018-Aug-09 16:30N 41°09' E 002°15'1 1.1
2018-Aug-09 16:00N 41°10' E 002°15'1 1.3
2018-Aug-09 15:30N 41°10' E 002°15'0 0.5
2018-Aug-09 15:00N 41°11' E 002°15'0 0.7
2018-Aug-09 14:30N 41°11' E 002°14'1 1.4
2018-Aug-09 14:00N 41°11' E 002°14'0 0.2
2018-Aug-09 13:30N 41°11' E 002°14'0 0.8
2018-Aug-09 13:00N 41°11' E 002°14'0 0.8
2018-Aug-09 12:30N 41°11' E 002°14'0 0.5
2018-Aug-09 12:00N 41°11' E 002°13'0 0.5
2018-Aug-09 11:30N 41°11' E 002°13'1 1.2
2018-Aug-09 11:00N 41°11' E 002°12'1 1.0
2018-Aug-09 10:30N 41°10' E 002°12'0 1.0
2018-Aug-09 10:00N 41°10' E 002°11'1 1.0
2018-Aug-09 09:30N 41°10' E 002°11'3 5.6
2018-Aug-09 09:00N 41°10' E 002°07'510.0
2018-Aug-09 08:30N 41°07' E 002°02'711.8
2018-Aug-09 07:57N 41°02' E 001°56'511.9
2018-Aug-09 07:30N 40°58' E 001°51'126 7.1
2018-Aug-08 13:40N 39°31' W 000°09'414.7
2018-Aug-08 13:26N 39°29' W 000°12'512.3
2018-Aug-08 13:00N 39°26' W 000°18'1 2.1
2018-Aug-08 12:24N 39°26' W 000°19'0 0.0
2018-Aug-08 11:51N 39°26' W 000°19'0 0.0
2018-Aug-08 11:30N 39°26' W 000°19'0 0.0
2018-Aug-08 09:03N 39°26' W 000°19'0 0.0
2018-Aug-08 08:39N 39°26' W 000°19'0 0.0
2018-Aug-08 08:30N 39°26' W 000°19'0 0.0
2018-Aug-08 07:42N 39°26' W 000°19'0 0.0
2018-Aug-08 05:51N 39°26' W 000°19'0 0.0
2018-Aug-08 05:21N 39°26' W 000°19'0 0.0
2018-Aug-08 04:56N 39°26' W 000°19'0 0.0
2018-Aug-08 04:27N 39°26' W 000°19'0 0.0
2018-Aug-08 03:59N 39°26' W 000°19'0 0.0
2018-Aug-08 03:21N 39°26' W 000°19'0 0.0
2018-Aug-08 02:54N 39°26' W 000°19'0 0.0
2018-Aug-08 01:47N 39°26' W 000°19'0 0.0
2018-Aug-08 01:21N 39°26' W 000°19'0 0.0
2018-Aug-08 00:56N 39°26' W 000°19'0 0.0
2018-Aug-08 00:26N 39°26' W 000°19'0 0.0
2018-Aug-07 23:57N 39°26' W 000°19'0 0.0
2018-Aug-07 23:30N 39°26' W 000°19'0 0.0
2018-Aug-07 22:50N 39°26' W 000°19'0 0.2
2018-Aug-07 22:29N 39°26' W 000°19'2 5.1
2018-Aug-07 22:00N 39°25' W 000°16'5013.7
2018-Aug-07 18:21N 38°47' E 000°25'714.6
2018-Aug-07 17:53N 38°41' E 000°27'615.3
2018-Aug-07 17:29N 38°36' E 000°21'1116.1
2018-Aug-07 16:50N 38°32' E 000°09'515.7
2018-Aug-07 16:30N 38°30' E 000°03'815.3
2018-Aug-07 16:00N 38°26' W 000°06'715.0
2018-Aug-07 15:30N 38°23' W 000°14'715.1
2018-Aug-07 15:00N 38°19' W 000°23'510.0
2018-Aug-07 14:28N 38°20' W 000°30'17 3.0
2018-Aug-07 08:48N 38°03' W 000°24'515.7
2018-Aug-07 08:30N 37°59' W 000°25'815.9
2018-Aug-07 08:00N 37°51' W 000°26'815.6
2018-Aug-07 07:29N 37°43' W 000°27'715.3
2018-Aug-07 07:00N 37°36' W 000°29'814.9
2018-Aug-07 06:27N 37°30' W 000°36'715.2
2018-Aug-07 05:57N 37°24' W 000°42'1015.3
2018-Aug-07 05:17N 37°17' W 000°52'1815.5
2018-Aug-07 04:07N 37°05' W 001°09'315.5
2018-Aug-07 03:56N 37°03' W 001°11'1015.5
2018-Aug-07 03:18N 36°57' W 001°21'2815.3
2018-Aug-07 01:26N 36°37' W 001°47'16815.7
2018-Aug-06 14:41N 36°01' W 005°11'317.3
2018-Aug-06 14:31N 36°01' W 005°14'917.4
2018-Aug-06 14:01N 35°59' W 005°25'917.6
2018-Aug-06 13:30N 35°56' W 005°35'916.4
2018-Aug-06 12:57N 35°55' W 005°46'715.9
2018-Aug-06 12:30N 35°54' W 005°55'9215.8
2018-Aug-06 06:39N 35°01' W 007°27'216.5
2018-Aug-06 06:31N 34°59' W 007°29'816.4
2018-Aug-06 06:00N 34°54' W 007°38'816.4
2018-Aug-06 05:30N 34°49' W 007°46'816.5
2018-Aug-06 05:00N 34°45' W 007°54'816.5
2018-Aug-06 04:31N 34°40' W 008°02'816.5
2018-Aug-06 04:00N 34°35' W 008°10'816.6
2018-Aug-06 03:31N 34°30' W 008°18'1416.6
2018-Aug-06 02:42N 34°22' W 008°31'316.5
2018-Aug-06 02:31N 34°20' W 008°34'916.3
2018-Aug-06 01:59N 34°15' W 008°43'916.3
2018-Aug-06 01:25N 34°10' W 008°52'1716.4
2018-Aug-06 00:21N 33°60' W 009°09'616.5
2018-Aug-06 00:00N 33°56' W 009°15'816.2
2018-Aug-05 23:30N 33°52' W 009°22'816.1
2018-Aug-05 23:01N 33°47' W 009°30'816.2
2018-Aug-05 22:30N 33°42' W 009°38'916.1
2018-Aug-05 21:57N 33°37' W 009°46'716.1
2018-Aug-05 21:30N 33°32' W 009°54'816.0
2018-Aug-05 21:00N 33°28' W 010°01'816.0
2018-Aug-05 20:30N 33°23' W 010°09'1016.2
2018-Aug-05 19:52N 33°17' W 010°19'616.4
2018-Aug-05 19:30N 33°13' W 010°25'816.2
2018-Aug-05 19:00N 33°09' W 010°33'815.9
2018-Aug-05 18:31N 33°04' W 010°40'816.1
2018-Aug-05 18:00N 32°60' W 010°48'816.1
2018-Aug-05 17:30N 32°55' W 010°56'816.1
2018-Aug-05 17:00N 32°50' W 011°04'816.3
2018-Aug-05 16:31N 32°45' W 011°12'816.2
2018-Aug-05 16:01N 32°40' W 011°19'816.1
2018-Aug-05 15:30N 32°36' W 011°27'816.4
2018-Aug-05 15:01N 32°31' W 011°35'1716.6
2018-Aug-05 14:01N 32°21' W 011°51'816.6
2018-Aug-05 13:30N 32°16' W 011°59'916.3
2018-Aug-05 12:58N 32°11' W 012°07'816.3
2018-Aug-05 12:29N 32°06' W 012°15'816.4
2018-Aug-05 12:00N 32°02' W 012°22'916.4
2018-Aug-05 11:28N 31°57' W 012°31'816.5
2018-Aug-05 11:00N 31°52' W 012°38'816.4
2018-Aug-05 10:30N 31°47' W 012°46'816.6
2018-Aug-05 10:00N 31°43' W 012°54'816.6
2018-Aug-05 09:30N 31°38' W 013°02'816.4
2018-Aug-05 09:00N 31°33' W 013°09'816.6
2018-Aug-05 08:30N 31°28' W 013°17'816.6
2018-Aug-05 08:00N 31°23' W 013°25'816.7
2018-Aug-05 07:30N 31°18' W 013°33'816.7
2018-Aug-05 07:00N 31°13' W 013°41'816.8
2018-Aug-05 06:30N 31°08' W 013°49'816.5
2018-Aug-05 06:00N 31°03' W 013°57'816.7
2018-Aug-05 05:30N 30°59' W 014°05'816.7
2018-Aug-05 05:01N 30°54' W 014°12'1016.6
2018-Aug-05 04:26N 30°48' W 014°22'1016.6
2018-Aug-05 03:48N 30°42' W 014°31'516.3
2018-Aug-05 03:30N 30°39' W 014°36'816.1
2018-Aug-05 03:00N 30°35' W 014°44'  

Dump ship's entire track history